Time;durP1;ratioP1;P1;durP2;ratioP2;P2;SDS_P1;SDS_P2;PMS_P1;PMS_P2;Temp;Humidity;BMP_temperature;BMP_pressure;BME280_temperature;BME280_humidity;BME280_pressure;Samples;Min_cycle;Max_cycle;Signal;HPM_P1;HPM_P2
2022/09/26 00:01:28;;;;;;;5.85;3.50;;;13.70;99.90;;;;;;4995160;28;20200;-82
2022/09/26 00:03:57;;;;;;;3.85;3.45;;;13.80;99.90;;;;;;4994752;28;20297;-78
2022/09/26 00:06:23;;;;;;;9.30;3.70;;;13.80;99.90;;;;;;4994128;28;20228;-83
2022/09/26 00:08:49;;;;;;;3.30;2.97;;;13.70;99.90;;;;;;4995309;28;20169;-84
2022/09/26 00:11:19;;;;;;;9.93;4.00;;;13.70;99.90;;;;;;4996142;28;20169;-83
2022/09/26 00:13:46;;;;;;;6.30;3.30;;;13.60;99.90;;;;;;4996704;28;20197;-80
2022/09/26 00:16:13;;;;;;;3.83;3.42;;;13.50;99.90;;;;;;4997015;28;20161;-85
2022/09/26 00:18:40;;;;;;;4.95;3.47;;;13.60;99.90;;;;;;4994141;28;20263;-84
2022/09/26 00:21:12;;;;;;;3.25;2.97;;;13.60;99.90;;;;;;4993869;28;20173;-84
2022/09/26 00:23:38;;;;;;;10.63;3.97;;;13.40;99.90;;;;;;4993819;28;20184;-84
2022/09/26 00:26:05;;;;;;;14.35;3.42;;;13.50;99.90;;;;;;4994121;28;20177;-82
2022/09/26 00:28:30;;;;;;;6.50;3.35;;;13.50;99.90;;;;;;4993839;28;20192;-83
2022/09/26 00:30:56;;;;;;;5.65;3.47;;;13.70;99.90;;;;;;5009460;28;20628;-78
2022/09/26 00:33:23;;;;;;;8.57;4.72;;;13.70;99.90;;;;;;4993868;28;20623;-83
2022/09/26 00:35:53;;;;;;;5.53;3.75;;;13.70;99.90;;;;;;4993852;28;20185;-81
2022/09/26 00:38:19;;;;;;;7.20;3.25;;;13.70;99.90;;;;;;4993650;28;20207;-83
2022/09/26 00:40:46;;;;;;;11.68;4.22;;;13.60;99.90;;;;;;4993464;28;20178;-78
2022/09/26 00:43:40;;;;;;;7.40;3.38;;;13.50;99.90;;;;;;4993499;28;20165;-85
2022/09/26 00:46:17;;;;;;;5.13;3.72;;;13.40;99.90;;;;;;5008491;28;20169;-77
2022/09/26 00:48:47;;;;;;;7.47;3.65;;;13.50;99.90;;;;;;4993340;28;20175;-77
2022/09/26 00:51:13;;;;;;;5.70;3.38;;;13.50;99.90;;;;;;4993921;28;20284;-78
2022/09/26 00:53:43;;;;;;;13.68;3.50;;;13.40;99.90;;;;;;4993333;28;20249;-82
2022/09/26 00:56:29;;;;;;;7.88;2.78;;;13.40;99.90;;;;;;4993610;28;20172;-84
2022/09/26 00:59:07;;;;;;;8.45;3.60;;;13.50;99.90;;;;;;4993530;28;20686;-83
2022/09/26 01:01:33;;;;;;;3.58;3.28;;;13.50;99.90;;;;;;4993532;28;20165;-80
2022/09/26 01:04:01;;;;;;;6.93;3.42;;;13.30;99.90;;;;;;4993753;28;20196;-84
2022/09/26 01:06:27;;;;;;;6.68;3.25;;;13.30;99.90;;;;;;4993450;28;20216;-82
2022/09/26 01:09:07;;;;;;;8.60;3.78;;;13.10;99.90;;;;;;4992770;28;20185;-79
2022/09/26 01:11:34;;;;;;;4.07;3.67;;;13.10;99.90;;;;;;5004933;28;20228;-77
2022/09/26 01:14:00;;;;;;;5.45;3.38;;;13.20;99.90;;;;;;5012723;28;20181;-83
2022/09/26 01:16:26;;;;;;;17.23;3.95;;;13.30;99.90;;;;;;5008597;28;20216;-81
2022/09/26 01:18:52;;;;;;;8.75;3.35;;;13.10;99.90;;;;;;4993272;28;20675;-85
2022/09/26 01:21:52;;;;;;;5.35;2.95;;;13.00;99.90;;;;;;4993574;28;20205;-78
2022/09/26 01:24:37;;;;;;;4.22;3.40;;;13.00;99.90;;;;;;4993344;28;20216;-80
2022/09/26 01:27:27;;;;;;;3.20;2.80;;;13.00;99.90;;;;;;4992907;28;20176;-79
2022/09/26 01:30:04;;;;;;;11.85;3.25;;;12.90;99.90;;;;;;4993112;28;20173;-78
2022/09/26 01:33:14;;;;;;;7.18;3.47;;;12.90;99.90;;;;;;4992924;28;20273;-79
2022/09/26 01:35:43;;;;;;;4.72;3.10;;;13.10;99.90;;;;;;4973768;28;20229;-82
2022/09/26 01:38:34;;;;;;;3.40;2.70;;;13.10;99.90;;;;;;4992518;28;20232;-80
2022/09/26 01:41:18;;;;;;;5.07;3.13;;;13.00;99.90;;;;;;4992919;28;20201;-85
2022/09/26 01:44:03;;;;;;;6.70;3.10;;;12.90;99.90;;;;;;4991645;28;20629;-83
2022/09/26 01:46:45;;;;;;;4.70;2.22;;;13.00;99.90;;;;;;4993614;28;20192;-84
2022/09/26 01:49:24;;;;;;;6.07;2.35;;;13.00;99.90;;;;;;4995426;28;20508;-78
2022/09/26 01:52:01;;;;;;;5.35;2.42;;;13.10;99.90;;;;;;4993739;28;20180;-79
2022/09/26 01:54:43;;;;;;;3.13;2.15;;;13.00;99.90;;;;;;4992966;28;20195;-83
2022/09/26 01:57:15;;;;;;;2.80;2.05;;;12.80;99.90;;;;;;4993178;28;20176;-82
2022/09/26 01:59:47;;;;;;;11.90;2.20;;;12.80;99.90;;;;;;4995186;28;20217;-86
2022/09/26 02:02:25;;;;;;;3.33;1.98;;;12.70;99.90;;;;;;4996163;28;20158;-81
2022/09/26 02:04:56;;;;;;;3.90;2.00;;;12.70;99.90;;;;;;4995654;28;20632;-83
2022/09/26 02:07:44;;;;;;;8.50;1.75;;;12.80;99.90;;;;;;4996446;28;20687;-85
2022/09/26 02:10:35;;;;;;;7.30;1.70;;;12.50;99.90;;;;;;4996234;28;20171;-83
2022/09/26 02:13:08;;;;;;;3.00;2.00;;;12.70;99.90;;;;;;4995013;28;20551;-86
2022/09/26 02:15:37;;;;;;;4.82;2.08;;;12.80;99.90;;;;;;4996419;28;20211;-82
2022/09/26 02:18:17;;;;;;;3.67;1.95;;;12.70;99.90;;;;;;4995286;28;20299;-85
2022/09/26 02:20:54;;;;;;;4.82;2.88;;;12.80;99.90;;;;;;4995744;28;20686;-80
2022/09/26 02:23:20;;;;;;;5.07;3.03;;;13.00;99.90;;;;;;4996057;28;20316;-86
2022/09/26 02:25:47;;;;;;;4.68;2.30;;;13.00;99.90;;;;;;4996172;28;20192;-82
2022/09/26 02:28:14;;;;;;;14.40;2.78;;;13.00;99.90;;;;;;5011519;28;20231;-80
2022/09/26 02:30:44;;;;;;;5.85;2.60;;;12.80;99.90;;;;;;4995814;28;20248;-86
2022/09/26 02:33:10;;;;;;;4.47;2.22;;;12.80;99.90;;;;;;4996777;28;20205;-81
2022/09/26 02:35:54;;;;;;;5.53;2.97;;;12.90;99.90;;;;;;5011178;28;20231;-85
2022/09/26 02:38:25;;;;;;;5.28;3.10;;;12.90;99.90;;;;;;4995957;28;20251;-86
2022/09/26 02:41:21;;;;;;;9.52;2.88;;;12.90;99.90;;;;;;4996175;28;20703;-85
2022/09/26 02:44:08;;;;;;;8.57;3.45;;;12.90;99.90;;;;;;4995995;28;20268;-85
2022/09/26 02:46:42;;;;;;;6.05;2.90;;;12.90;99.90;;;;;;4995759;28;20253;-81
2022/09/26 02:49:26;;;;;;;10.30;2.40;;;13.00;99.90;;;;;;4996282;28;20172;-81
2022/09/26 02:52:31;;;;;;;3.97;2.28;;;13.10;99.90;;;;;;4995667;28;20172;-82
2022/09/26 02:55:09;;;;;;;4.80;2.30;;;13.10;99.90;;;;;;4988486;28;20272;-80
2022/09/26 02:58:02;;;;;;;7.00;2.45;;;13.20;99.90;;;;;;4995793;28;20248;-83
2022/09/26 03:00:41;;;;;;;5.32;2.47;;;13.20;99.90;;;;;;4995590;28;20228;-79
2022/09/26 03:03:41;;;;;;;6.47;2.15;;;13.10;99.90;;;;;;4995451;28;20165;-85
2022/09/26 03:06:11;;;;;;;11.77;2.42;;;13.10;99.90;;;;;;4994116;28;20191;-82
2022/09/26 03:08:39;;;;;;;3.03;2.05;;;12.90;99.90;;;;;;4995703;28;20161;-79
2022/09/26 03:11:09;;;;;;;6.47;1.75;;;13.00;99.90;;;;;;4995481;28;20248;-85
2022/09/26 03:13:37;;;;;;;2.33;1.70;;;12.90;99.90;;;;;;4995438;28;20513;-82
2022/09/26 03:16:04;;;;;;;2.83;1.55;;;12.90;99.90;;;;;;4995965;28;20193;-86
2022/09/26 03:18:55;;;;;;;6.60;1.67;;;13.00;99.90;;;;;;4995482;28;20713;-86
2022/09/26 03:21:21;;;;;;;4.00;1.98;;;12.90;99.90;;;;;;5002099;28;20173;-78
2022/09/26 03:23:47;;;;;;;6.35;1.88;;;12.90;99.90;;;;;;5013571;28;20173;-78
2022/09/26 03:26:18;;;;;;;6.20;2.00;;;12.90;99.90;;;;;;5018747;28;20161;-80
2022/09/26 03:28:43;;;;;;;4.88;1.73;;;12.80;99.90;;;;;;4995874;28;20176;-84
2022/09/26 03:31:10;;;;;;;7.97;1.95;;;12.80;99.90;;;;;;4993978;28;20177;-85
2022/09/26 03:33:36;;;;;;;4.60;2.00;;;12.90;99.90;;;;;;4995111;28;20290;-80
2022/09/26 03:36:08;;;;;;;4.82;2.05;;;12.90;99.90;;;;;;4994998;28;20198;-80
2022/09/26 03:38:34;;;;;;;9.05;2.33;;;13.10;99.90;;;;;;4995022;28;20259;-83
2022/09/26 03:41:01;;;;;;;6.85;2.22;;;13.00;99.90;;;;;;4994971;28;20168;-86
2022/09/26 03:43:27;;;;;;;2.53;1.77;;;13.00;99.90;;;;;;4995434;28;20179;-86
2022/09/26 03:45:53;;;;;;;7.60;1.83;;;13.00;99.90;;;;;;4995901;28;20161;-83
2022/09/26 03:48:19;;;;;;;3.00;1.65;;;13.20;99.90;;;;;;4995993;28;20176;-78
2022/09/26 03:50:45;;;;;;;6.55;1.85;;;13.30;99.90;;;;;;4995357;28;20504;-84
2022/09/26 03:53:10;;;;;;;15.23;2.55;;;13.30;99.90;;;;;;5009985;28;20181;-86
2022/09/26 03:55:36;;;;;;;10.50;2.78;;;13.30;99.90;;;;;;4994667;28;20598;-87
2022/09/26 03:58:02;;;;;;;9.40;1.90;;;13.00;99.90;;;;;;5011726;28;20209;-85
2022/09/26 04:00:28;;;;;;;3.53;2.08;;;13.00;99.90;;;;;;4996017;28;20185;-86
2022/09/26 04:02:53;;;;;;;9.35;2.05;;;13.10;99.90;;;;;;4997424;28;20251;-82
2022/09/26 04:05:19;;;;;;;3.55;1.40;;;13.10;99.90;;;;;;4995680;28;20189;-83
2022/09/26 04:07:45;;;;;;;5.90;1.80;;;13.00;99.90;;;;;;4993838;28;20316;-79
2022/09/26 04:10:12;;;;;;;2.97;1.90;;;12.90;99.90;;;;;;4994155;28;20173;-80
2022/09/26 04:12:38;;;;;;;3.05;1.65;;;13.10;99.90;;;;;;4993908;28;20184;-84
2022/09/26 04:15:06;;;;;;;3.25;2.00;;;13.00;99.90;;;;;;4993712;28;20239;-80
2022/09/26 04:17:32;;;;;;;2.88;1.70;;;13.00;99.90;;;;;;4992471;28;20681;-83
2022/09/26 04:19:58;;;;;;;7.00;2.47;;;12.90;99.90;;;;;;4993559;28;20173;-80
2022/09/26 04:22:24;;;;;;;5.30;1.83;;;12.90;99.90;;;;;;4993901;28;20169;-80
2022/09/26 04:24:50;;;;;;;6.38;2.10;;;12.90;99.90;;;;;;4992534;28;20188;-82
2022/09/26 04:27:17;;;;;;;7.53;1.95;;;12.70;99.90;;;;;;4993743;28;20188;-81
2022/09/26 04:29:43;;;;;;;4.00;1.70;;;12.90;99.90;;;;;;4993370;28;20167;-80
2022/09/26 04:32:10;;;;;;;3.45;1.85;;;13.10;99.90;;;;;;4993412;28;20204;-80
2022/09/26 04:34:38;;;;;;;2.15;1.95;;;13.00;99.90;;;;;;4993323;28;20189;-79
2022/09/26 04:37:05;;;;;;;5.07;2.03;;;13.00;99.90;;;;;;4993992;28;20169;-85
2022/09/26 04:39:30;;;;;;;5.15;2.00;;;13.00;99.90;;;;;;4993639;28;20319;-80
2022/09/26 04:41:56;;;;;;;5.60;1.80;;;12.80;99.90;;;;;;4993017;28;20662;-80
2022/09/26 04:44:21;;;;;;;5.00;1.65;;;12.80;99.90;;;;;;4993282;28;20574;-79
2022/09/26 04:46:50;;;;;;;6.28;2.05;;;12.90;99.90;;;;;;4993420;28;20180;-86
2022/09/26 04:49:16;;;;;;;2.90;1.77;;;13.00;99.90;;;;;;4993366;28;20211;-79
2022/09/26 04:51:41;;;;;;;5.25;2.33;;;13.00;99.90;;;;;;4993037;28;20165;-86
2022/09/26 04:54:07;;;;;;;3.22;1.38;;;13.00;99.90;;;;;;4993456;28;20197;-80
2022/09/26 04:56:34;;;;;;;3.00;1.90;;;13.10;99.90;;;;;;4994126;28;20165;-85
2022/09/26 04:58:59;;;;;;;10.73;2.03;;;13.00;99.90;;;;;;4992822;28;20216;-83
2022/09/26 05:01:25;;;;;;;3.38;1.92;;;13.00;99.90;;;;;;4994152;28;20244;-86
2022/09/26 05:03:52;;;;;;;6.68;1.50;;;13.00;99.90;;;;;;5009153;28;20227;-86
2022/09/26 05:06:18;;;;;;;5.55;2.00;;;13.00;99.90;;;;;;4991642;28;20612;-83
2022/09/26 05:08:45;;;;;;;7.53;2.58;;;12.90;99.90;;;;;;4993987;28;20201;-83
2022/09/26 05:11:17;;;;;;;8.35;2.20;;;12.80;99.90;;;;;;4993304;28;20201;-83
2022/09/26 05:13:43;;;;;;;10.80;2.63;;;12.70;99.90;;;;;;4993350;28;20716;-79
2022/09/26 05:16:10;;;;;;;6.75;2.75;;;12.70;99.90;;;;;;4992958;28;20171;-86
2022/09/26 05:18:36;;;;;;;10.82;2.75;;;12.70;99.90;;;;;;4992822;28;20695;-83
2022/09/26 05:21:04;;;;;;;9.05;3.47;;;12.60;99.90;;;;;;4992951;28;20253;-80
2022/09/26 05:26:23;;;;;;;8.95;2.92;;;12.70;99.90;;;;;;4993070;28;20269;-81
2022/09/26 05:28:54;;;;;;;6.00;3.38;;;12.80;99.90;;;;;;4992983;28;20177;-79
2022/09/26 05:31:22;;;;;;;7.05;2.90;;;12.70;99.90;;;;;;4992637;28;20165;-79
2022/09/26 05:33:49;;;;;;;6.72;2.28;;;12.80;99.90;;;;;;4995696;28;20690;-87
2022/09/26 05:36:15;;;;;;;6.57;3.28;;;12.70;99.90;;;;;;4996171;28;20678;-79
2022/09/26 05:38:41;;;;;;;6.95;4.25;;;12.70;99.90;;;;;;4996657;28;20244;-78
2022/09/26 05:41:06;;;;;;;9.63;3.17;;;12.60;99.90;;;;;;4996412;28;20197;-79
2022/09/26 05:43:33;;;;;;;3.95;2.50;;;12.70;99.90;;;;;;4996876;28;20176;-78
2022/09/26 05:46:04;;;;;;;7.43;2.90;;;12.70;99.90;;;;;;4996713;28;20196;-79
2022/09/26 05:48:32;;;;;;;4.57;2.75;;;12.70;99.90;;;;;;4994710;28;20181;-80
2022/09/26 05:51:08;;;;;;;5.20;3.15;;;12.90;99.90;;;;;;4996968;28;20451;-81
2022/09/26 05:53:34;;;;;;;5.07;2.70;;;12.80;99.90;;;;;;4996780;28;20169;-81
2022/09/26 05:56:00;;;;;;;6.63;2.75;;;12.90;99.90;;;;;;4996704;28;20612;-81
2022/09/26 05:58:32;;;;;;;7.70;2.92;;;12.90;99.90;;;;;;4994994;28;20293;-79
2022/09/26 06:01:13;;;;;;;6.57;2.55;;;12.90;99.90;;;;;;4996070;28;20259;-81
2022/09/26 06:03:42;;;;;;;6.18;3.20;;;12.90;99.90;;;;;;4995901;28;20162;-81
2022/09/26 06:06:10;;;;;;;4.93;2.28;;;12.90;99.90;;;;;;4995597;28;20172;-81
2022/09/26 06:08:37;;;;;;;3.67;2.30;;;12.90;99.90;;;;;;4995685;28;20178;-79
2022/09/26 06:11:06;;;;;;;9.15;2.65;;;12.90;99.90;;;;;;4994263;28;20173;-78
2022/09/26 06:13:32;;;;;;;7.07;2.58;;;12.90;99.90;;;;;;4995563;28;20196;-79
2022/09/26 06:16:06;;;;;;;10.77;3.40;;;13.10;99.90;;;;;;4993874;28;20405;-78
2022/09/26 06:18:33;;;;;;;5.13;2.20;;;13.10;99.90;;;;;;4995100;28;20236;-80
2022/09/26 06:21:06;;;;;;;3.03;2.38;;;13.10;99.90;;;;;;4994577;28;20165;-82
2022/09/26 06:23:33;;;;;;;6.97;2.78;;;13.00;99.90;;;;;;4995090;28;20214;-78
2022/09/26 06:25:59;;;;;;;6.20;2.60;;;13.00;99.90;;;;;;4995202;28;20697;-80
2022/09/26 06:28:25;;;;;;;5.82;2.30;;;12.90;99.90;;;;;;4995246;28;20596;-80
2022/09/26 06:30:52;;;;;;;3.53;2.05;;;13.00;99.90;;;;;;4995395;28;20169;-83
2022/09/26 06:33:18;;;;;;;9.18;2.15;;;13.10;99.90;;;;;;4995001;28;20197;-82
2022/09/26 06:35:44;;;;;;;2.47;1.90;;;13.00;99.90;;;;;;4994828;28;20228;-80
2022/09/26 06:38:09;;;;;;;7.85;2.22;;;13.00;99.90;;;;;;4994951;28;20255;-85
2022/09/26 06:40:35;;;;;;;7.30;2.00;;;12.80;99.90;;;;;;4993681;28;20177;-79
2022/09/26 06:43:02;;;;;;;5.97;2.63;;;12.90;99.90;;;;;;4994746;28;20166;-80
2022/09/26 06:45:28;;;;;;;3.13;1.90;;;13.00;99.90;;;;;;4995434;28;20203;-79
2022/09/26 06:47:54;;;;;;;3.58;1.73;;;13.10;99.90;;;;;;4995015;28;20184;-80
2022/09/26 06:50:23;;;;;;;1.90;1.70;;;13.00;99.90;;;;;;4994807;28;20162;-80
2022/09/26 06:52:48;;;;;;;3.70;1.65;;;12.90;99.90;;;;;;4994741;28;20170;-79
2022/09/26 06:55:14;;;;;;;2.65;1.90;;;13.10;99.90;;;;;;5009830;28;20197;-81
2022/09/26 06:57:42;;;;;;;7.82;2.03;;;13.10;99.90;;;;;;4994734;28;20177;-79
2022/09/26 07:00:13;;;;;;;3.10;1.55;;;13.20;99.90;;;;;;4994867;28;20169;-79
2022/09/26 07:02:49;;;;;;;1.85;1.35;;;13.20;99.90;;;;;;4994803;28;20176;-80
2022/09/26 07:05:15;;;;;;;3.65;1.23;;;13.20;99.90;;;;;;4995211;28;20189;-80
2022/09/26 07:07:42;;;;;;;4.32;1.25;;;13.30;99.90;;;;;;4993445;28;20183;-79
2022/09/26 07:10:07;;;;;;;5.90;1.25;;;13.30;99.90;;;;;;4993427;28;20206;-78
2022/09/26 07:12:36;;;;;;;5.75;1.38;;;13.20;99.90;;;;;;4993467;28;20256;-79
2022/09/26 07:15:03;;;;;;;2.85;1.60;;;13.20;99.90;;;;;;4995114;28;20188;-78
2022/09/26 07:17:28;;;;;;;8.45;1.75;;;13.30;99.90;;;;;;4994732;28;20570;-79
2022/09/26 07:19:55;;;;;;;1.88;1.40;;;13.30;99.90;;;;;;4994504;28;20213;-79
2022/09/26 07:22:20;;;;;;;2.22;1.15;;;13.30;99.90;;;;;;4995062;28;20173;-79
2022/09/26 07:24:48;;;;;;;4.07;1.38;;;13.30;99.90;;;;;;5008277;28;20192;-79
2022/09/26 07:27:15;;;;;;;4.72;1.65;;;13.40;99.90;;;;;;4986300;28;20649;-79
2022/09/26 07:29:41;;;;;;;5.40;2.05;;;13.50;99.90;;;;;;4974799;28;20173;-79
2022/09/26 07:32:07;;;;;;;23.55;1.75;;;13.70;99.90;;;;;;4974791;28;20174;-80
2022/09/26 07:34:32;;;;;;;11.70;1.58;;;13.70;99.90;;;;;;4974662;28;20555;-79
2022/09/26 07:36:58;;;;;;;10.10;2.13;;;13.80;99.90;;;;;;4974634;28;20206;-79
2022/09/26 07:39:25;;;;;;;4.35;1.73;;;13.80;99.90;;;;;;4974462;28;20280;-80
2022/09/26 07:41:51;;;;;;;9.10;1.83;;;13.90;99.90;;;;;;4974386;28;20236;-78
2022/09/26 07:44:16;;;;;;;9.05;1.70;;;13.80;99.90;;;;;;4974397;28;20652;-78
2022/09/26 07:52:10;;;;;;;7.35;1.80;;;13.60;99.90;;;;;;4973994;28;21234;-79
2022/09/26 07:54:36;;;;;;;12.63;3.17;;;13.50;99.90;;;;;;4973918;28;20198;-79
2022/09/26 07:57:03;;;;;;;8.15;1.70;;;13.60;99.90;;;;;;4974048;28;20536;-79
2022/09/26 07:59:34;;;;;;;10.07;2.22;;;13.60;99.90;;;;;;4975233;28;20316;-79
2022/09/26 08:02:02;;;;;;;5.18;1.92;;;13.80;99.90;;;;;;4972672;28;20194;-79
2022/09/26 08:04:28;;;;;;;4.05;2.55;;;13.90;99.90;;;;;;4973867;28;20284;-79
2022/09/26 08:06:55;;;;;;;4.70;2.40;;;14.10;99.90;;;;;;4972693;28;20180;-80
2022/09/26 08:09:21;;;;;;;6.07;2.03;;;14.10;99.90;;;;;;4974213;28;20709;-82
2022/09/26 08:11:47;;;;;;;6.85;2.60;;;14.30;99.90;;;;;;4973027;28;20162;-79
2022/09/26 08:14:13;;;;;;;10.10;2.65;;;14.30;99.90;;;;;;4974086;28;20193;-79
2022/09/26 08:16:40;;;;;;;6.22;3.17;;;14.40;99.90;;;;;;4974103;28;20260;-78
2022/09/26 08:19:07;;;;;;;6.88;2.70;;;14.70;99.90;;;;;;4972754;28;20616;-79
2022/09/26 08:21:34;;;;;;;7.22;2.42;;;14.80;99.90;;;;;;4974066;28;20651;-81
2022/09/26 08:24:00;;;;;;;6.72;2.33;;;14.80;99.90;;;;;;4974086;28;20226;-79
2022/09/26 08:26:26;;;;;;;5.47;2.80;;;14.70;99.90;;;;;;4972783;28;20181;-79
2022/09/26 08:28:53;;;;;;;2.70;1.40;;;14.60;99.90;;;;;;4975291;28;20197;-79
2022/09/26 08:31:19;;;;;;;4.25;2.38;;;14.50;99.90;;;;;;4973633;28;20539;-79
2022/09/26 08:33:46;;;;;;;6.22;1.75;;;14.30;99.90;;;;;;4974182;28;20281;-79
2022/09/26 08:36:16;;;;;;;3.60;1.90;;;14.30;99.90;;;;;;4972824;28;20181;-80
2022/09/26 08:38:42;;;;;;;6.93;3.22;;;14.30;99.90;;;;;;4973842;28;20237;-81
2022/09/26 08:41:15;;;;;;;6.13;1.80;;;14.40;99.90;;;;;;4973646;28;20221;-80
2022/09/26 08:43:50;;;;;;;8.05;2.60;;;14.30;99.90;;;;;;4973715;28;20227;-80
2022/09/26 08:49:30;;;;;;;6.70;2.70;;;14.50;99.90;;;;;;4974153;28;20182;-80
2022/09/26 08:51:59;;;;;;;8.30;2.55;;;14.50;99.90;;;;;;4973177;28;20223;-80
2022/09/26 08:54:38;;;;;;;2.80;1.92;;;14.50;99.90;;;;;;4973596;28;20196;-80
2022/09/26 08:57:40;;;;;;;4.90;2.03;;;14.40;99.90;;;;;;4973530;28;20286;-80
2022/09/26 09:00:17;;;;;;;7.50;2.03;;;14.40;99.90;;;;;;4973277;28;20181;-80
2022/09/26 09:03:10;;;;;;;10.50;2.53;;;14.50;99.90;;;;;;4973230;28;20750;-80
2022/09/26 09:05:42;;;;;;;6.75;2.20;;;14.60;99.90;;;;;;4973370;28;20189;-79
2022/09/26 09:08:40;;;;;;;3.80;2.13;;;14.50;99.90;;;;;;4975686;28;20161;-82
2022/09/26 09:11:39;;;;;;;5.72;2.20;;;14.20;99.90;;;;;;4942345;28;20208;-80
2022/09/26 09:14:29;;;;;;;7.18;2.10;;;14.10;99.90;;;;;;4977467;28;20201;-82
2022/09/26 09:17:12;;;;;;;4.22;1.80;;;14.20;99.90;;;;;;4977440;28;20636;-80
2022/09/26 09:20:10;;;;;;;6.75;2.42;;;14.20;99.90;;;;;;4975958;28;20683;-81
2022/09/26 09:22:57;;;;;;;7.45;2.58;;;14.10;99.90;;;;;;4977383;28;20251;-80
2022/09/26 09:25:31;;;;;;;2.35;1.95;;;14.10;99.90;;;;;;4977344;28;20566;-80
2022/09/26 09:28:15;;;;;;;3.28;2.40;;;13.80;99.90;;;;;;4977225;28;20174;-82
2022/09/26 09:30:58;;;;;;;3.53;2.40;;;14.00;99.90;;;;;;4977246;28;20165;-80
2022/09/26 09:33:28;;;;;;;7.97;1.88;;;13.80;99.90;;;;;;4975411;28;20192;-79
2022/09/26 09:35:57;;;;;;;4.45;2.70;;;13.80;99.90;;;;;;4977076;28;20209;-82
2022/09/26 09:38:28;;;;;;;4.25;2.70;;;13.70;99.90;;;;;;4976981;28;20202;-81
2022/09/26 09:41:15;;;;;;;7.22;2.88;;;13.80;99.90;;;;;;4975698;28;20615;-80
2022/09/26 09:43:55;;;;;;;2.75;2.17;;;13.90;99.90;;;;;;4976275;28;20644;-80
2022/09/26 09:46:34;;;;;;;4.53;2.17;;;13.90;99.90;;;;;;4976879;28;20192;-81
2022/09/26 09:49:09;;;;;;;6.40;2.10;;;13.80;99.90;;;;;;4975589;28;20174;-79
2022/09/26 09:52:02;;;;;;;5.78;2.30;;;13.80;99.90;;;;;;4976561;28;20252;-80
2022/09/26 09:54:31;;;;;;;10.88;2.38;;;13.80;99.90;;;;;;4976785;28;20186;-78
2022/09/26 09:57:33;;;;;;;4.18;1.70;;;14.00;99.90;;;;;;4975078;28;20269;-79
2022/09/26 10:00:07;;;;;;;4.15;2.17;;;14.00;99.90;;;;;;4976374;28;20251;-81
2022/09/26 10:03:10;;;;;;;3.45;2.15;;;14.00;99.90;;;;;;4976541;28;20166;-79
2022/09/26 10:05:40;;;;;;;6.50;2.00;;;13.80;99.90;;;;;;4976066;28;20655;-78
2022/09/26 10:08:26;;;;;;;2.65;1.85;;;13.80;99.90;;;;;;4976210;28;20170;-77
2022/09/26 10:11:21;;;;;;;4.07;2.10;;;13.80;99.90;;;;;;4976311;28;20176;-78
2022/09/26 10:13:48;;;;;;;8.70;3.15;;;14.00;99.90;;;;;;4976028;28;20610;-78
2022/09/26 10:16:14;;;;;;;4.70;2.47;;;13.90;99.90;;;;;;4976393;28;20158;-79
2022/09/26 10:19:05;;;;;;;4.75;2.42;;;13.90;99.90;;;;;;4975262;28;20631;-78
2022/09/26 10:21:38;;;;;;;8.27;2.28;;;14.10;99.90;;;;;;4976019;28;20173;-79
2022/09/26 10:24:05;;;;;;;6.85;2.85;;;14.20;99.90;;;;;;4976059;28;20209;-79
2022/09/26 10:26:38;;;;;;;13.63;3.08;;;14.20;99.90;;;;;;4976099;28;20680;-78
2022/09/26 10:29:23;;;;;;;8.02;2.67;;;14.30;99.90;;;;;;4976126;28;20181;-77
2022/09/26 10:31:55;;;;;;;8.93;2.80;;;14.20;99.90;;;;;;4976048;28;20185;-78
2022/09/26 10:34:24;;;;;;;4.25;3.13;;;14.20;99.90;;;;;;4975933;28;20537;-78
2022/09/26 10:36:51;;;;;;;4.15;2.60;;;14.20;99.90;;;;;;4974317;28;20182;-78
2022/09/26 10:42:13;;;;;;;7.57;3.50;;;14.20;99.90;;;;;;4976263;28;20217;-77
2022/09/26 10:44:40;;;;;;;5.05;2.85;;;13.80;99.90;;;;;;4976139;28;20217;-78
2022/09/26 10:47:12;;;;;;;4.45;3.30;;;13.60;99.90;;;;;;4976131;28;20172;-77
2022/09/26 10:50:00;;;;;;;5.78;3.50;;;13.60;99.90;;;;;;4975806;28;20230;-77
2022/09/26 10:52:29;;;;;;;6.28;3.70;;;13.60;99.90;;;;;;4975741;28;20178;-77
2022/09/26 10:55:06;;;;;;;9.73;3.47;;;13.50;99.90;;;;;;4975644;28;20200;-77
2022/09/26 10:57:44;;;;;;;6.47;3.47;;;13.60;99.90;;;;;;4975366;28;20232;-78
2022/09/26 11:00:17;;;;;;;7.82;2.70;;;13.60;99.90;;;;;;4975532;28;20188;-77
2022/09/26 11:02:46;;;;;;;8.90;3.22;;;13.60;99.90;;;;;;4975571;28;20221;-78
2022/09/26 11:08:05;;;;;;;3.45;2.65;;;13.50;99.90;;;;;;4975481;28;20193;-78
2022/09/26 11:10:31;;;;;;;8.50;2.78;;;13.50;99.90;;;;;;4975320;28;20625;-78
2022/09/26 11:12:59;;;;;;;3.22;2.90;;;13.50;99.90;;;;;;4974967;28;20229;-78
2022/09/26 11:15:25;;;;;;;4.65;2.40;;;13.60;99.90;;;;;;4975214;28;20190;-79
2022/09/26 11:17:52;;;;;;;4.43;2.75;;;13.50;99.90;;;;;;4974939;28;20188;-78
2022/09/26 11:20:28;;;;;;;4.53;2.50;;;13.50;99.90;;;;;;4974941;28;20174;-77
2022/09/26 11:23:26;;;;;;;3.63;2.63;;;13.50;99.90;;;;;;4975210;28;20639;-78
2022/09/26 11:25:53;;;;;;;3.30;2.60;;;13.40;99.90;;;;;;4970531;28;20699;-78
2022/09/26 11:28:26;;;;;;;8.77;2.92;;;13.40;99.90;;;;;;4974618;28;20169;-78
2022/09/26 11:30:57;;;;;;;5.85;3.67;;;13.40;99.90;;;;;;4974907;28;20174;-78
2022/09/26 11:33:23;;;;;;;4.75;2.60;;;13.40;99.90;;;;;;4974973;28;20166;-78
2022/09/26 11:36:21;;;;;;;6.03;3.25;;;13.40;99.90;;;;;;4973842;28;20219;-80
2022/09/26 11:38:55;;;;;;;3.35;2.10;;;13.40;99.90;;;;;;4974857;28;20210;-78
2022/09/26 11:41:42;;;;;;;4.50;2.78;;;13.40;99.90;;;;;;4974349;28;20178;-78
2022/09/26 11:44:49;;;;;;;8.63;2.65;;;13.40;99.90;;;;;;4974505;28;20189;-78
2022/09/26 11:47:33;;;;;;;5.05;2.80;;;13.40;99.90;;;;;;4968981;28;20319;-78
2022/09/26 11:50:22;;;;;;;5.20;2.78;;;13.50;99.90;;;;;;4974476;28;20229;-77
2022/09/26 11:53:22;;;;;;;6.93;2.55;;;13.50;99.90;;;;;;4975391;28;20193;-78
2022/09/26 11:56:20;;;;;;;5.57;2.15;;;13.40;99.90;;;;;;4972821;28;20205;-79
2022/09/26 11:58:52;;;;;;;8.90;2.95;;;13.60;99.90;;;;;;4972997;28;20213;-79
2022/09/26 12:01:58;;;;;;;5.45;2.30;;;13.70;99.90;;;;;;4973861;28;20170;-79
2022/09/26 12:04:53;;;;;;;5.88;2.67;;;14.00;99.90;;;;;;4973935;28;20220;-79
2022/09/26 12:07:54;;;;;;;3.63;2.30;;;13.90;99.90;;;;;;4974166;28;20170;-80
2022/09/26 12:10:20;;;;;;;2.83;1.80;;;14.10;99.90;;;;;;4971467;28;20252;-78
2022/09/26 12:12:56;;;;;;;2.65;2.28;;;14.00;99.90;;;;;;4971352;28;20181;-84
2022/09/26 12:15:37;;;;;;;6.30;2.35;;;14.00;99.90;;;;;;4973801;28;20216;-83
2022/09/26 12:18:39;;;;;;;5.10;2.25;;;14.00;99.90;;;;;;4973819;28;20194;-78
2022/09/26 12:21:32;;;;;;;4.20;2.20;;;14.00;99.90;;;;;;4973581;28;20264;-78
2022/09/26 12:24:22;;;;;;;5.05;2.47;;;14.00;99.90;;;;;;4973706;28;20675;-80
2022/09/26 12:27:13;;;;;;;3.42;2.25;;;13.90;99.90;;;;;;4974318;28;20166;-78
2022/09/26 12:30:01;;;;;;;8.10;2.40;;;14.30;99.90;;;;;;4974226;28;20232;-78
2022/09/26 12:32:40;;;;;;;2.13;1.92;;;14.40;99.90;;;;;;4974378;28;20182;-78
2022/09/26 12:35:37;;;;;;;2.35;1.75;;;14.60;99.90;;;;;;4974414;28;20215;-77
2022/09/26 12:38:26;;;;;;;3.33;2.08;;;14.50;99.90;;;;;;4988582;28;20173;-78
2022/09/26 12:41:18;;;;;;;5.60;2.67;;;14.30;99.90;;;;;;4996883;28;20169;-78
2022/09/26 12:44:21;;;;;;;4.10;2.40;;;14.20;99.90;;;;;;4996943;28;20166;-80
2022/09/26 12:47:10;;;;;;;7.20;2.35;;;14.10;99.90;;;;;;4997737;28;20212;-79
2022/09/26 12:49:57;;;;;;;5.22;2.33;;;14.10;99.90;;;;;;4992355;28;20201;-78
2022/09/26 12:52:25;;;;;;;6.63;2.58;;;14.10;99.90;;;;;;4994367;28;20180;-79
2022/09/26 12:54:57;;;;;;;12.98;2.65;;;14.00;99.90;;;;;;4994788;28;20216;-78
2022/09/26 12:57:39;;;;;;;2.30;2.10;;;14.00;99.90;;;;;;4985682;28;20165;-78
2022/09/26 13:00:15;;;;;;;2.55;2.05;;;13.90;99.90;;;;;;4979171;28;20567;-77
2022/09/26 13:03:02;;;;;;;3.35;2.10;;;13.80;99.90;;;;;;4976401;28;20177;-78
2022/09/26 13:05:35;;;;;;;2.80;2.47;;;13.80;99.90;;;;;;4977560;28;20198;-77
2022/09/26 13:08:14;;;;;;;2.90;2.10;;;13.80;99.90;;;;;;4976526;28;20154;-80
2022/09/26 13:11:09;;;;;;;4.05;2.13;;;13.80;99.90;;;;;;4976999;28;20183;-77
2022/09/26 13:14:08;;;;;;;2.97;1.90;;;13.70;99.90;;;;;;4993457;28;20646;-78
2022/09/26 13:17:09;;;;;;;3.42;1.92;;;13.70;99.90;;;;;;4993974;28;20252;-78
2022/09/26 13:19:43;;;;;;;2.25;1.88;;;13.80;99.90;;;;;;4992814;28;20236;-78
2022/09/26 13:22:31;;;;;;;2.92;1.88;;;13.80;99.90;;;;;;4992733;28;20168;-79
2022/09/26 13:25:24;;;;;;;2.40;1.90;;;13.90;99.90;;;;;;4992642;28;20694;-78
2022/09/26 13:28:08;;;;;;;3.95;1.58;;;14.00;99.90;;;;;;4992869;28;20233;-79
2022/09/26 13:30:52;;;;;;;2.63;1.70;;;13.80;99.90;;;;;;4992928;28;20174;-82
2022/09/26 13:33:21;;;;;;;2.83;1.70;;;14.00;99.90;;;;;;4992118;28;20179;-78
2022/09/26 13:35:50;;;;;;;2.95;1.50;;;14.10;99.90;;;;;;4992515;28;20201;-79
2022/09/26 13:38:27;;;;;;;3.22;1.90;;;14.00;99.90;;;;;;4992876;28;20197;-78